^^
Grace C. Lehan Memorial Weather Station Historical Data
Daily Summary for February 4, 2021 Units:  English    Metric   Both
Daily Weekly Monthly Yearly
  High: Low: Average:
Temperature: 40.9 °F 27.5 °F 33.4 °F
Dew Point: 27.8 °F 22.3 °F 24.9 °F
Humidity: 82.7% 58.5% 71%
Wind Speed: 7.8mph 0mph 1.9mph
Wind Gust: 18mph - -
Wind- - NW
Pressure: 29.85 in 29.61 in -
Precipitation: 0.20 in    
 
 
Tabular Data for February 4, 2021
Time Temperature Dew Point Pressure Wind Wind Speed Wind Gust Humidity Rainfall Rate (Hourly) solar
00:04 30.7 °F 24 °F 29.61 in NW 4.7 mph 11 mph 76% 0.00 in 0 W/m2
00:09 30.7 °F 24 °F 29.61 in NW 4.4 mph 10 mph 75.8% 0.00 in 0 W/m2
00:14 30.7 °F 23.9 °F 29.61 in WNW 5.5 mph 13 mph 75.5% 0.00 in 0 W/m2
00:19 30.7 °F 24 °F 29.61 in WNW 2 mph 13 mph 75.8% 0.00 in 0 W/m2
00:24 30.7 °F 23.9 °F 29.61 in NW 4.2 mph 13 mph 75.5% 0.00 in 0 W/m2
00:29 30.6 °F 23.6 °F 29.61 in NW 4.1 mph 13 mph 75% 0.00 in 0 W/m2
00:34 30.6 °F 23.6 °F 29.61 in NW 4.6 mph 13 mph 75% 0.00 in 0 W/m2
00:39 30.5 °F 23.6 °F 29.61 in NW 3.1 mph 10 mph 75% 0.00 in 0 W/m2
00:44 30.5 °F 23.5 °F 29.61 in NW 3.8 mph 10 mph 75% 0.00 in 0 W/m2
00:49 30.5 °F 23.5 °F 29.61 in NW 5 mph 10 mph 75% 0.00 in 0 W/m2
00:54 30.4 °F 23.5 °F 29.61 in WNW 5.3 mph 10 mph 75% 0.00 in 0 W/m2
00:59 30.4 °F 23.4 °F 29.61 in WNW 4 mph 11 mph 75% 0.00 in 0 W/m2
01:04 30.4 °F 23.4 °F 29.61 in WNW 3.3 mph 11 mph 75% 0.00 in 0 W/m2
01:09 30.3 °F 23.3 °F 29.61 in NW 4.4 mph 10 mph 75% 0.00 in 0 W/m2
01:14 30.3 °F 23.3 °F 29.62 in WNW 3.1 mph 11 mph 74.8% 0.00 in 0 W/m2
01:19 30.3 °F 23.1 °F 29.62 in NW 3.8 mph 12 mph 74.1% 0.00 in 0 W/m2
01:24 30.3 °F 23.1 °F 29.62 in NW 3.1 mph 12 mph 74.2% 0.00 in 0 W/m2
01:29 30.3 °F 23 °F 29.62 in WNW 2.3 mph 12 mph 74% 0.00 in 0 W/m2
01:34 30.4 °F 23.1 °F 29.63 in NW 2.2 mph 12 mph 74% 0.00 in 0 W/m2
01:39 30.4 °F 23.1 °F 29.63 in NW 3.6 mph 11 mph 74% 0.00 in 0 W/m2
01:44 30.5 °F 23.2 °F 29.63 in NW 3.9 mph 13 mph 74% 0.00 in 0 W/m2
01:49 30.5 °F 23.2 °F 29.63 in NW 1.6 mph 13 mph 74% 0.00 in 0 W/m2
01:54 30.6 °F 23.3 °F 29.63 in NNW 1.6 mph 13 mph 74% 0.00 in 0 W/m2
01:59 30.6 °F 23.3 °F 29.63 in NW 3.4 mph 13 mph 73.8% 0.00 in 0 W/m2
02:04 30.7 °F 23.2 °F 29.64 in NW 0.3 mph 13 mph 73.3% 0.00 in 0 W/m2
02:09 30.7 °F 23.4 °F 29.64 in NW 2.5 mph 10 mph 73.9% 0.00 in 0 W/m2
02:14 30.7 °F 23.3 °F 29.64 in NW 4 mph 10 mph 73.7% 0.00 in 0 W/m2
02:19 30.7 °F 23.1 °F 29.64 in NW 2.9 mph 11 mph 73.1% 0.00 in 0 W/m2
02:24 30.7 °F 23.1 °F 29.64 in WNW 3.2 mph 11 mph 73% 0.00 in 0 W/m2
02:29 30.7 °F 23.1 °F 29.64 in NW 4.9 mph 13 mph 73% 0.00 in 0 W/m2
02:34 30.8 °F 23.2 °F 29.64 in NW 2.4 mph 13 mph 73% 0.00 in 0 W/m2
02:39 30.8 °F 23.2 °F 29.64 in NW 3.1 mph 10 mph 73% 0.00 in 0 W/m2
02:44 30.8 °F 23.2 °F 29.65 in North 0.7 mph 10 mph 73% 0.00 in 0 W/m2
02:49 30.9 °F 23.3 °F 29.65 in NW 4.4 mph 11 mph 73% 0.00 in 0 W/m2
02:54 31 °F 23.3 °F 29.65 in NNW 2.8 mph 11 mph 73% 0.00 in 0 W/m2
02:59 31 °F 23.4 °F 29.65 in NNW 0.9 mph 11 mph 73% 0.00 in 0 W/m2
03:04 31.1 °F 23.5 °F 29.65 in WNW 1 mph 11 mph 73% 0.00 in 0 W/m2
03:09 31.1 °F 23.4 °F 29.65 in NW 0.1 mph 6 mph 73% 0.00 in 0 W/m2
03:14 31 °F 23.4 °F 29.66 in Calm   6 mph 73% 0.00 in 0 W/m2
03:19 31 °F 23.4 °F 29.66 in NW 1.4 mph 7 mph 73% 0.00 in 0 W/m2
03:24 31 °F 23.3 °F 29.66 in NW 0.5 mph 7 mph 73% 0.00 in 0 W/m2
03:29 30.9 °F 23.3 °F 29.65 in NNW 0.1 mph 7 mph 73% 0.00 in 0 W/m2
03:34 30.8 °F 23.2 °F 29.66 in North 0.8 mph 7 mph 73% 0.00 in 0 W/m2
03:39 30.8 °F 23.2 °F 29.66 in North 0.2 mph 6 mph 73% 0.00 in 0 W/m2
03:44 30.7 °F 23.1 °F 29.66 in NW 1 mph 7 mph 73% 0.00 in 0 W/m2
03:49 30.7 °F 23.1 °F 29.66 in NW 0.1 mph 7 mph 73% 0.00 in 0 W/m2
03:54 30.6 °F 23.1 °F 29.66 in NW 0.8 mph 7 mph 73.2% 0.00 in 0 W/m2
03:59 30.5 °F 23.2 °F 29.66 in NW 0.2 mph 7 mph 74% 0.00 in 0 W/m2
04:00 30.5 °F 23.2 °F 29.66 in Calm   7 mph 74% 0.00 in 0 W/m2
04:09 30.3 °F 23 °F 29.66 in Calm     74% 0.00 in 0 W/m2
04:14 30.2 °F 23 °F 29.66 in Calm     74% 0.00 in 0 W/m2
04:19 30.2 °F 22.9 °F 29.67 in Calm     74% 0.00 in 0 W/m2
04:24 30.1 °F 22.8 °F 29.67 in Calm     74% 0.00 in 0 W/m2
04:29 30 °F 22.8 °F 29.67 in Calm     74.3% 0.00 in 0 W/m2
04:34 29.9 °F 22.9 °F 29.67 in Calm     74.7% 0.00 in 0 W/m2
04:39 29.9 °F 22.9 °F 29.68 in Calm     75% 0.00 in 0 W/m2
04:44 29.8 °F 22.9 °F 29.68 in Calm     75% 0.00 in 0 W/m2
04:49 29.7 °F 23 °F 29.68 in Calm     75.7% 0.00 in 0 W/m2
04:54 29.7 °F 23.1 °F 29.69 in Calm     76% 0.00 in 0 W/m2
04:59 29.6 °F 23 °F 29.69 in Calm     76% 0.00 in 0 W/m2
05:04 29.5 °F 22.9 °F 29.69 in Calm     76% 0.00 in 0 W/m2
05:09 29.4 °F 22.8 °F 29.69 in Calm     76% 0.00 in 0 W/m2
05:14 29.4 °F 22.8 °F 29.69 in Calm     76% 0.00 in 0 W/m2
05:19 29.4 °F 22.8 °F 29.70 in Calm     76% 0.00 in 0 W/m2
05:24 29.4 °F 22.8 °F 29.70 in Calm     76% 0.00 in 0 W/m2
05:29 29.4 °F 22.9 °F 29.70 in Calm     76.5% 0.00 in 0 W/m2
05:34 29.4 °F 23.1 °F 29.70 in Calm     77% 0.00 in 0 W/m2
05:39 29.2 °F 22.9 °F 29.70 in Calm     77% 0.00 in 0 W/m2
05:44 29.1 °F 22.8 °F 29.70 in Calm     77% 0.00 in 0 W/m2
05:49 29 °F 22.7 °F 29.70 in Calm     77% 0.00 in 0 W/m2
05:54 28.9 °F 22.6 °F 29.70 in Calm     77% 0.00 in 0 W/m2
05:59 28.8 °F 22.6 °F 29.70 in Calm     77.3% 0.00 in 0 W/m2
06:04 28.7 °F 22.8 °F 29.71 in Calm     78% 0.00 in 0 W/m2
06:09 28.7 °F 22.7 °F 29.71 in Calm     78% 0.00 in 0 W/m2
06:14 28.6 °F 22.6 °F 29.72 in Calm     78% 0.00 in 0 W/m2
06:19 28.6 °F 22.6 °F 29.72 in Calm     78% 0.00 in 0 W/m2
06:24 28.6 °F 22.9 °F 29.72 in Calm     78.9% 0.00 in 0 W/m2
06:29 28.5 °F 22.8 °F 29.72 in Calm     79% 0.00 in 0 W/m2
06:34 28.5 °F 22.8 °F 29.72 in Calm     79% 0.00 in 0 W/m2
06:39 28.4 °F 22.7 °F 29.73 in Calm     79% 0.00 in 0 W/m2
06:44 28.3 °F 22.7 °F 29.73 in Calm     79% 0.00 in 0 W/m2
06:49 28.2 °F 22.5 °F 29.73 in Calm     79% 0.00 in 0 W/m2
06:54 28.1 °F 22.4 °F 29.73 in Calm     79% 0.00 in 0 W/m2
06:59 28 °F 22.3 °F 29.73 in Calm     79% 0.00 in 0 W/m2
07:04 27.9 °F 22.5 °F 29.74 in Calm     79.8% 0.00 in 0 W/m2
07:09 27.8 °F 22.5 °F 29.74 in Calm     80% 0.00 in 0 W/m2
07:14 27.7 °F 22.4 °F 29.74 in Calm     80% 0.00 in 0 W/m2
07:19 27.6 °F 22.3 °F 29.74 in Calm     80.2% 0.00 in 5 W/m2
07:24 27.6 °F 22.5 °F 29.74 in Calm     81% 0.00 in 5 W/m2
07:29 27.6 °F 22.5 °F 29.75 in Calm     81% 0.00 in 7 W/m2
07:34 27.6 °F 22.5 °F 29.75 in Calm     81% 0.00 in 11 W/m2
07:39 27.7 °F 22.6 °F 29.75 in Calm     81% 0.00 in 12 W/m2
07:44 27.7 °F 23 °F 29.75 in Calm     82% 0.00 in 12 W/m2
07:49 27.8 °F 23.1 °F 29.76 in Calm     82% 0.00 in 14 W/m2
07:54 28 °F 23.2 °F 29.76 in Calm     82% 0.00 in 16 W/m2
07:59 28.1 °F 23.2 °F 29.76 in Calm     81.8% 0.00 in 18 W/m2
08:00 28.1 °F 23.3 °F 29.76 in Calm     82% 0.00 in 12 W/m2
08:09 28.3 °F 23.3 °F 29.76 in Calm     81% 0.00 in 28 W/m2
08:14 28.5 °F 23.4 °F 29.76 in Calm     81% 0.00 in 35 W/m2
08:19 28.7 °F 23.6 °F 29.76 in Calm   1 mph 81% 0.00 in 39 W/m2
08:24 29.1 °F 24 °F 29.76 in NW 0.2 mph 3 mph 80.9% 0.00 in 40 W/m2
08:29 29.5 °F 24.1 °F 29.76 in Calm   3 mph 80% 0.00 in 49 W/m2
08:34 29.9 °F 24.5 °F 29.77 in Calm   3 mph 80% 0.00 in 76 W/m2
08:39 30.5 °F 24.8 °F 29.77 in NW 0.1 mph 2 mph 79% 0.00 in 100 W/m2
08:44 31.3 °F 25.4 °F 29.77 in Calm   2 mph 78.4% 0.00 in 104 W/m2
08:49 32.2 °F 25.8 °F 29.77 in Calm   2 mph 77.2% 0.00 in 102 W/m2
08:54 32.9 °F 25.9 °F 29.77 in Calm   2 mph 75.1% 0.00 in 100 W/m2
08:59 33.5 °F 25.9 °F 29.77 in NW 1 mph 5 mph 73.6% 0.00 in 123 W/m2
09:04 34.1 °F 26.2 °F 29.77 in NNW 0.2 mph 5 mph 72.6% 0.00 in 132 W/m2
09:09 34.8 °F 26.6 °F 29.77 in NNW 0.4 mph 3 mph 71.8% 0.00 in 120 W/m2
09:14 35.4 °F 26.8 °F 29.77 in NNW 0.1 mph 3 mph 70.5% 0.00 in 130 W/m2
09:19 36 °F 27.1 °F 29.77 in NW 2.3 mph 9 mph 69.7% 0.00 in 130 W/m2
09:24 36.4 °F 26.6 °F 29.77 in NW 1 mph 9 mph 67.1% 0.00 in 127 W/m2
09:29 36.6 °F 26.5 °F 29.77 in NW 2.7 mph 10 mph 66.5% 0.00 in 142 W/m2
09:34 36.7 °F 26.5 °F 29.77 in NW 2.4 mph 10 mph 66% 0.00 in 151 W/m2
09:39 36.8 °F 26.5 °F 29.78 in NW 2.1 mph 10 mph 66% 0.00 in 151 W/m2
09:44 36.9 °F 26.3 °F 29.78 in NW 3.6 mph 10 mph 65.1% 0.00 in 132 W/m2
09:49 37 °F 26.3 °F 29.78 in WNW 6.4 mph 13 mph 64.8% 0.00 in 118 W/m2
09:54 37 °F 26.1 °F 29.78 in NW 4.9 mph 13 mph 64.5% 0.00 in 107 W/m2
09:59 36.8 °F 26.2 °F 29.78 in NW 2.5 mph 13 mph 65% 0.00 in 114 W/m2
10:04 36.8 °F 26.2 °F 29.78 in NW 2.2 mph 13 mph 65% 0.00 in 169 W/m2
10:09 37 °F 26.4 °F 29.78 in NW 3.3 mph 18 mph 65% 0.00 in 169 W/m2
10:14 37.3 °F 26.4 °F 29.78 in NW 4 mph 18 mph 64.6% 0.00 in 156 W/m2
10:19 37.5 °F 26.7 °F 29.78 in NW 3.2 mph 18 mph 64.6% 0.00 in 165 W/m2
10:24 37.8 °F 26.8 °F 29.78 in WNW 4.3 mph 18 mph 64.2% 0.00 in 220 W/m2
10:29 38.1 °F 26.9 °F 29.78 in NW 3.1 mph 18 mph 63.7% 0.00 in 274 W/m2
10:34 38.4 °F 26.9 °F 29.78 in NNW 2.8 mph 18 mph 63% 0.00 in 396 W/m2
10:39 38.7 °F 27.3 °F 29.78 in NNW 1.6 mph 9 mph 63.2% 0.00 in 204 W/m2
10:44 38.9 °F 27.1 °F 29.78 in NW 2.8 mph 9 mph 62.2% 0.00 in 176 W/m2
10:49 38.8 °F 26.9 °F 29.78 in NW 2.4 mph 9 mph 62.1% 0.00 in 220 W/m2
10:54 38.7 °F 27.1 °F 29.78 in WNW 5.3 mph 11 mph 62.8% 0.00 in 223 W/m2
10:59 38.6 °F 26.9 °F 29.78 in NW 6.9 mph 15 mph 62.5% 0.00 in 341 W/m2
11:04 38.7 °F 27.1 °F 29.78 in NW 5.3 mph 15 mph 62.7% 0.00 in 341 W/m2
11:09 38.8 °F 27.1 °F 29.78 in NNW 2.5 mph 15 mph 62.5% 0.00 in 162 W/m2
11:14 38.9 °F 27.2 °F 29.78 in WNW 7.2 mph 15 mph 62.5% 0.00 in 146 W/m2
11:19 38.7 °F 27 °F 29.78 in NW 3.3 mph 15 mph 62.3% 0.00 in 139 W/m2
11:24 38.7 °F 27 °F 29.78 in WNW 6.9 mph 18 mph 62.6% 0.00 in 160 W/m2
11:29 38.4 °F 26.8 °F 29.78 in NW 4.8 mph 18 mph 62.7% 0.02 in 193 W/m2
11:34 38.4 °F 26.9 °F 29.78 in NW 4.6 mph 18 mph 63.1% 0.02 in 197 W/m2
11:39 38.4 °F 26.9 °F 29.78 in NW 7.8 mph 17 mph 63% 0.03 in 167 W/m2
11:44 38.3 °F 26.7 °F 29.78 in WNW 6.7 mph 17 mph 62.7% 0.03 in 165 W/m2
11:49 38.3 °F 26.8 °F 29.78 in NW 7.6 mph 17 mph 63% 0.03 in 162 W/m2
11:54 38.2 °F 26.7 °F 29.78 in NW 5.8 mph 17 mph 63% 0.03 in 204 W/m2
11:59 38.2 °F 26.7 °F 29.78 in NW 6.6 mph 17 mph 63% 0.04 in 214 W/m2
12:04 38.4 °F 27.3 °F 29.77 in Calm     64% 0.04 in 244 W/m2
12:09 38.6 °F 27.3 °F 29.78 in WNW 3.9 mph 12 mph 63.7% 0.04 in 325 W/m2
12:14 39 °F 27.2 °F 29.77 in NW 6 mph 16 mph 62.2% 0.04 in 325 W/m2
12:19 39.1 °F 27 °F 29.77 in WNW 7.1 mph 16 mph 61.4% 0.04 in 267 W/m2
12:24 39 °F 26.8 °F 29.77 in WNW 6 mph 17 mph 61.1% 0.04 in 322 W/m2
12:29 39.1 °F 27.3 °F 29.78 in NW 3.5 mph 17 mph 62.2% 0.05 in 265 W/m2
12:34 39.2 °F 27.3 °F 29.78 in NW 4.4 mph 17 mph 62% 0.05 in 200 W/m2
12:39 39.2 °F 27.1 °F 29.78 in WNW 6.9 mph 15 mph 61.7% 0.04 in 253 W/m2
12:44 39 °F 27 °F 29.78 in WNW 7.4 mph 16 mph 61.7% 0.04 in 258 W/m2
12:49 38.8 °F 26.8 °F 29.78 in NW 7.6 mph 16 mph 61.6% 0.05 in 283 W/m2
12:54 38.6 °F 26.7 °F 29.78 in NW 3.1 mph 16 mph 62% 0.05 in 192 W/m2
12:59 38.5 °F 26.8 °F 29.78 in NW 6.4 mph 16 mph 62.3% 0.05 in 192 W/m2
13:04 38.4 °F 26.9 °F 29.78 in NW 7.4 mph 16 mph 63% 0.05 in 186 W/m2
13:09 38.3 °F 26.7 °F 29.78 in NW 6.8 mph 18 mph 62.8% 0.03 in 248 W/m2
13:14 38.3 °F 26.8 °F 29.78 in WNW 6.4 mph 18 mph 63% 0.03 in 248 W/m2
13:19 38.4 °F 26.8 °F 29.78 in WNW 7 mph 18 mph 62.6% 0.04 in 188 W/m2
13:24 38.4 °F 26.8 °F 29.78 in NW 4.9 mph 18 mph 62.8% 0.04 in 207 W/m2
13:29 38.4 °F 26.9 °F 29.78 in WNW 6.3 mph 18 mph 63% 0.04 in 171 W/m2
13:34 38.5 °F 26.8 °F 29.78 in WNW 6.4 mph 18 mph 62.5% 0.04 in 186 W/m2
13:39 38.5 °F 27 °F 29.78 in NW 4.9 mph 12 mph 62.9% 0.05 in 343 W/m2
13:44 38.7 °F 27.1 °F 29.78 in WNW 6.5 mph 14 mph 62.6% 0.05 in 362 W/m2
13:49 39.1 °F 27.1 °F 29.78 in NW 5.3 mph 16 mph 61.8% 0.05 in 167 W/m2
13:54 39.4 °F 27.2 °F 29.78 in NW 6.4 mph 16 mph 61.2% 0.06 in 397 W/m2
13:59 39.8 °F 27.5 °F 29.77 in NW 5.9 mph 16 mph 61% 0.06 in 436 W/m2
14:04 40.2 °F 27.7 °F 29.77 in WNW 4.6 mph 16 mph 60.7% 0.06 in 700 W/m2
14:09 40.7 °F 27.8 °F 29.77 in NW 7.1 mph 15 mph 59.8% 0.05 in 508 W/m2
14:14 40.9 °F 27.8 °F 29.77 in WNW 6.7 mph 15 mph 59.1% 0.05 in 311 W/m2
14:19 40.9 °F 27.7 °F 29.77 in WNW 7.1 mph 15 mph 59% 0.06 in 230 W/m2
14:24 40.6 °F 27.2 °F 29.77 in NW 6.6 mph 15 mph 58.5% 0.07 in 230 W/m2
14:29 40.3 °F 27.1 °F 29.77 in NW 4 mph 15 mph 59% 0.07 in 174 W/m2
14:34 40 °F 27.1 °F 29.77 in NW 5.7 mph 15 mph 59.5% 0.07 in 315 W/m2
14:39 39.9 °F 27.2 °F 29.77 in WNW 5.2 mph 11 mph 60% 0.06 in 322 W/m2
14:44 39.9 °F 27.2 °F 29.77 in WNW 1.2 mph 11 mph 60.1% 0.06 in 309 W/m2
14:49 40.1 °F 27.6 °F 29.78 in NW 2.9 mph 13 mph 60.6% 0.07 in 397 W/m2
14:54 40.2 °F 27.4 °F 29.78 in NW 4.2 mph 13 mph 59.9% 0.07 in 404 W/m2
14:59 40.1 °F 27.3 °F 29.77 in NW 5.6 mph 14 mph 59.8% 0.08 in 311 W/m2
15:04 40 °F 27.2 °F 29.77 in NNW 2.5 mph 14 mph 59.9% 0.08 in 197 W/m2
15:09 39.8 °F 27.1 °F 29.78 in NNW 4.3 mph 12 mph 60% 0.06 in 35 W/m2
15:14 39.7 °F 27.2 °F 29.78 in NW 4 mph 12 mph 60.5% 0.06 in 33 W/m2
15:19 39.6 °F 27 °F 29.78 in NW 1.5 mph 12 mph 60.4% 0.07 in 32 W/m2
15:24 39.6 °F 27 °F 29.78 in NNW 1.2 mph 12 mph 60.5% 0.07 in 30 W/m2
15:29 39.5 °F 27.1 °F 29.78 in North 1.2 mph 12 mph 60.9% 0.07 in 28 W/m2
15:34 39.5 °F 27.2 °F 29.78 in WNW 5.5 mph 15 mph 61% 0.07 in 28 W/m2
15:39 39.6 °F 27.2 °F 29.79 in WNW 4.7 mph 15 mph 60.8% 0.04 in 26 W/m2
15:44 39.6 °F 27.1 °F 29.79 in WNW 5.5 mph 15 mph 60.6% 0.04 in 26 W/m2
15:49 39.6 °F 26.9 °F 29.79 in WNW 4.5 mph 15 mph 60.2% 0.04 in 25 W/m2
15:54 39.6 °F 27 °F 29.79 in WNW 1.5 mph 15 mph 60.4% 0.05 in 25 W/m2
15:59 39.6 °F 27.3 °F 29.80 in WNW 2.5 mph 15 mph 61% 0.05 in 23 W/m2
16:00 39.6 °F 27.3 °F 29.80 in WNW 6.5 mph 15 mph 61% 0.05 in 23 W/m2
16:09 39.5 °F 27.2 °F 29.80 in WNW 2.2 mph 7 mph 61% 0.02 in 21 W/m2
16:14 39.4 °F 27.1 °F 29.80 in WNW 2.6 mph 11 mph 61% 0.02 in 21 W/m2
16:19 39.4 °F 27.1 °F 29.81 in WNW 1.2 mph 11 mph 61% 0.02 in 19 W/m2
16:24 39.3 °F 27 °F 29.81 in WNW 1.9 mph 11 mph 61.1% 0.02 in 18 W/m2
16:29 39.2 °F 27.1 °F 29.81 in WNW 2.6 mph 11 mph 61.5% 0.02 in 18 W/m2
16:34 39.1 °F 26.8 °F 29.81 in WNW 2.3 mph 11 mph 61% 0.02 in 16 W/m2
16:39 39.1 °F 26.8 °F 29.81 in WNW 4.4 mph 13 mph 61% 0.01 in 14 W/m2
16:44 39.1 °F 26.8 °F 29.81 in WNW 4.8 mph 13 mph 61% 0.01 in 14 W/m2
16:49 39 °F 26.8 °F 29.81 in WNW 2.1 mph 13 mph 61.2% 0.01 in 12 W/m2
16:54 38.9 °F 26.6 °F 29.81 in WNW 5.5 mph 13 mph 61% 0.01 in 11 W/m2
16:59 38.8 °F 26.7 °F 29.81 in WNW 1.8 mph 13 mph 61.6% 0.01 in 9 W/m2
17:04 38.6 °F 26.8 °F 29.81 in WNW 1.6 mph 13 mph 62% 0.01 in 5 W/m2
17:09 38.4 °F 26.5 °F 29.81 in WNW 3.1 mph 9 mph 62% 0.00 in 0 W/m2
17:14 38.2 °F 26.4 °F 29.81 in WNW 1.3 mph 10 mph 62.2% 0.01 in 0 W/m2
17:19 38 °F 26.5 °F 29.81 in WNW 0.6 mph 10 mph 63% 0.01 in 0 W/m2
17:24 37.8 °F 26.3 °F 29.81 in Calm   10 mph 63% 0.01 in 0 W/m2
17:29 37.5 °F 26.4 °F 29.80 in Calm   10 mph 63.8% 0.01 in 0 W/m2
17:34 37.3 °F 26 °F 29.81 in Calm   10 mph 63.5% 0.01 in 0 W/m2
17:39 37.1 °F 26 °F 29.81 in Calm     64% 0.01 in 0 W/m2
17:44 36.9 °F 25.9 °F 29.81 in Calm     64% 0.01 in 0 W/m2
17:49 36.7 °F 26 °F 29.81 in Calm     64.7% 0.01 in 0 W/m2
17:54 36.5 °F 25.9 °F 29.81 in Calm     65% 0.01 in 0 W/m2
17:59 36.2 °F 25.6 °F 29.81 in Calm     65% 0.01 in 0 W/m2
18:04 36 °F 25.7 °F 29.81 in Calm     65.8% 0.01 in 0 W/m2
18:09 35.7 °F 25.5 °F 29.81 in Calm     66% 0.01 in 0 W/m2
18:14 35.4 °F 25.2 °F 29.82 in Calm     66% 0.01 in 0 W/m2
18:19 35.2 °F 25.4 °F 29.82 in Calm     67% 0.01 in 0 W/m2
18:24 35 °F 25.5 °F 29.82 in Calm     68% 0.01 in 0 W/m2
18:29 34.7 °F 25.5 °F 29.82 in Calm     68.8% 0.01 in 0 W/m2
18:34 34.3 °F 25.2 °F 29.82 in Calm     69% 0.01 in 0 W/m2
18:39 34 °F 25.1 °F 29.83 in Calm     69.6% 0.00 in 0 W/m2
18:44 33.7 °F 24.9 °F 29.83 in Calm     70% 0.00 in 0 W/m2
18:49 33.4 °F 24.9 °F 29.83 in Calm     70.7% 0.00 in 0 W/m2
18:54 33.2 °F 24.9 °F 29.83 in Calm     71% 0.00 in 0 W/m2
18:59 33.2 °F 25.3 °F 29.82 in Calm     72.3% 0.00 in 0 W/m2
19:04 33.4 °F 25.7 °F 29.83 in Calm     73% 0.00 in 0 W/m2
19:09 33.6 °F 25.3 °F 29.82 in Calm     71.5% 0.00 in 0 W/m2
19:14 33.6 °F 25.3 °F 29.82 in Calm     71% 0.00 in 0 W/m2
19:19 33.7 °F 25.3 °F 29.82 in Calm     70.8% 0.00 in 0 W/m2
19:24 33.8 °F 25.4 °F 29.82 in Calm     71% 0.00 in 0 W/m2
19:29 33.9 °F 25.2 °F 29.82 in Calm     70.3% 0.00 in 0 W/m2
19:34 33.9 °F 25.3 °F 29.82 in Calm     70.2% 0.00 in 0 W/m2
19:39 33.8 °F 25.4 °F 29.82 in Calm     71% 0.00 in 0 W/m2
19:44 33.3 °F 25.2 °F 29.82 in Calm     71.6% 0.00 in 0 W/m2
19:49 32.9 °F 25.2 °F 29.82 in Calm     73% 0.00 in 0 W/m2
19:54 32.5 °F 25.1 °F 29.81 in Calm     73.7% 0.00 in 0 W/m2
19:59 32.3 °F 25 °F 29.82 in Calm     74% 0.00 in 0 W/m2
20:00 32.3 °F 25 °F 29.82 in Calm     74% 0.00 in 0 W/m2
20:09 32 °F 24.9 °F 29.83 in Calm     74.8% 0.00 in 0 W/m2
20:14 31.6 °F 24.7 °F 29.83 in Calm     75.3% 0.00 in 0 W/m2
20:19 31.3 °F 24.6 °F 29.83 in Calm     76% 0.00 in 0 W/m2
20:24 31 °F 24.5 °F 29.83 in Calm     76.4% 0.00 in 0 W/m2
20:29 30.9 °F 24.5 °F 29.84 in Calm     77% 0.00 in 0 W/m2
20:34 30.7 °F 24.3 °F 29.84 in Calm     77% 0.00 in 0 W/m2
20:39 30.4 °F 24.1 °F 29.84 in Calm     77.2% 0.00 in 0 W/m2
20:44 30.2 °F 24.2 °F 29.84 in Calm     77.9% 0.00 in 0 W/m2
20:49 30.1 °F 24.1 °F 29.84 in Calm     78% 0.00 in 0 W/m2
20:54 30 °F 24.2 °F 29.85 in Calm     78.6% 0.00 in 0 W/m2
20:59 30 °F 24.3 °F 29.85 in Calm     79% 0.00 in 0 W/m2
21:04 29.9 °F 24.2 °F 29.84 in Calm     79% 0.00 in 0 W/m2
21:09 29.9 °F 24.2 °F 29.84 in Calm     79% 0.00 in 0 W/m2
21:14 29.8 °F 24.3 °F 29.84 in Calm     79.5% 0.00 in 0 W/m2
21:19 29.8 °F 24.4 °F 29.84 in Calm     80% 0.00 in 0 W/m2
21:24 29.8 °F 24.4 °F 29.84 in Calm     80% 0.00 in 0 W/m2
21:29 29.9 °F 24.5 °F 29.84 in Calm     80% 0.00 in 0 W/m2
21:34 29.9 °F 24.5 °F 29.84 in Calm     80% 0.00 in 0 W/m2
21:39 29.9 °F 24.5 °F 29.84 in Calm     80% 0.00 in 0 W/m2
21:44 29.8 °F 24.3 °F 29.84 in Calm     80% 0.00 in 0 W/m2
21:49 29.6 °F 24.2 °F 29.84 in Calm     79.8% 0.00 in 0 W/m2
21:54 29.4 °F 24.1 °F 29.84 in Calm     80% 0.00 in 0 W/m2
21:59 29.3 °F 23.9 °F 29.84 in Calm     80% 0.00 in 0 W/m2
22:04 29.1 °F 23.9 °F 29.84 in Calm     80.5% 0.00 in 0 W/m2
22:09 28.9 °F 23.9 °F 29.84 in Calm     81% 0.00 in 0 W/m2
22:14 28.8 °F 23.7 °F 29.84 in Calm     81% 0.00 in 0 W/m2
22:19 28.8 °F 23.7 °F 29.84 in Calm     81% 0.00 in 0 W/m2
22:24 28.8 °F 23.7 °F 29.84 in Calm     81% 0.00 in 0 W/m2
22:29 28.9 °F 23.8 °F 29.84 in Calm     81% 0.00 in 0 W/m2
22:34 28.9 °F 23.8 °F 29.84 in Calm     81% 0.00 in 0 W/m2
22:39 28.7 °F 23.7 °F 29.84 in Calm     81% 0.00 in 0 W/m2
22:44 28.6 °F 23.5 °F 29.84 in Calm     81% 0.00 in 0 W/m2
22:49 28.7 °F 23.6 °F 29.84 in Calm     81% 0.00 in 0 W/m2
22:54 29.1 °F 24 °F 29.84 in Calm     81% 0.00 in 0 W/m2
22:59 29.5 °F 24.1 °F 29.84 in Calm     80.2% 0.00 in 0 W/m2
23:04 29.5 °F 23.8 °F 29.83 in Calm     79% 0.00 in 0 W/m2
23:09 29.4 °F 23.7 °F 29.84 in Calm     79% 0.00 in 0 W/m2
23:14 29.3 °F 23.6 °F 29.84 in Calm     79% 0.00 in 0 W/m2
23:19 28.9 °F 23.3 °F 29.84 in Calm     79% 0.00 in 0 W/m2
23:24 28.4 °F 22.8 °F 29.84 in Calm     79.3% 0.00 in 0 W/m2
23:29 28 °F 22.7 °F 29.84 in Calm     80.4% 0.00 in 0 W/m2
23:34 27.7 °F 22.7 °F 29.83 in Calm     81.1% 0.00 in 0 W/m2
23:39 27.6 °F 22.8 °F 29.83 in Calm     82% 0.00 in 0 W/m2
23:44 27.6 °F 22.9 °F 29.83 in Calm     82.1% 0.00 in 0 W/m2
23:49 27.7 °F 23.1 °F 29.83 in Calm     82.7% 0.00 in 0 W/m2
23:54 27.7 °F 22.9 °F 29.83 in Calm     82% 0.00 in 0 W/m2
23:59 27.5 °F 22.8 °F 29.83 in Calm     82% 0.00 in 0 W/m2
Hartford County Weather
Compliments of Weather Underground - 2 mb